Saturday, January 20, 2018, 8:20 AM EST
Back to Local

KPSF, Pittsfield Municipal Airport

Location: Pittsfield, MA, United States Lat: 42.433
Local Time: 8:20 AM EST (13:20 GMT) Lon: -73.283
Time Zone: US/Eastern Elev: 1194 ft

Show me the last for .
Show Decoded

2018-01-20 07:54 METAR KPSF 201254Z AUTO 18003KT 10SM CLR M06/M08 A2972 RMK AO2 SLP084 T10561083
                 =
2018-01-20 06:54 METAR KPSF 201154Z AUTO 00000KT 10SM CLR M07/M09 A2970 RMK AO2 SLP077 T10671089
                 11056 21089 55007 =
2018-01-20 05:54 METAR KPSF 201054Z AUTO 19003KT 10SM CLR M07/M09 A2970 RMK AO2 SLP074 T10671094
                 =
2018-01-20 04:54 METAR KPSF 200954Z AUTO 00000KT 8SM CLR M07/M10 A2970 RMK AO2 SLP073 T10671100 =
2018-01-20 03:54 METAR KPSF 200854Z AUTO 03004KT 8SM CLR M07/M10 A2972 RMK AO2 SLP082 T10671100
                 58017 =
2018-01-20 01:54 METAR KPSF 200654Z AUTO 00000KT 6SM BR CLR M08/M11 A2977 RMK AO2 SLP098
                 T10831106 =
2018-01-20 00:54 METAR KPSF 200554Z AUTO 00000KT 5SM BR CLR M08/M11 A2978 RMK AO2 SLP101 I1000
                 I6000 T10831106 11056 21094 58021 =
2018-01-19 23:54 METAR KPSF 200454Z AUTO 03004KT 5SM BR CLR M08/M11 A2980 RMK AO2 SLP108 I1000
                 T10831106 410171111 =
2018-01-19 22:54 METAR KPSF 200354Z AUTO 00000KT 8SM CLR M08/M11 A2983 RMK AO2 SLP120 T10831111 =
2018-01-19 21:54 METAR KPSF 200254Z AUTO 00000KT 10SM CLR M08/M11 A2984 RMK AO2 SLP124 T10781111
                 58011 =
2018-01-19 20:54 METAR KPSF 200154Z AUTO 00000KT 9SM CLR M07/M10 A2986 RMK AO2 SLP134 T10671100 =
2018-01-19 19:54 METAR KPSF 200054Z AUTO 00000KT 10SM CLR M06/M09 A2987 RMK AO2 SLP138 T10561094
                 =
2018-01-19 18:54 METAR KPSF 192354Z AUTO 25004KT 10SM CLR M06/M09 A2987 RMK AO2 SLP137 T10561089
                 11017 21056 55005 =
2018-01-19 17:54 METAR KPSF 192254Z AUTO 24003KT 10SM CLR M04/M09 A2987 RMK AO2 SLP134 T10441089
                 =
2018-01-19 17:33 METAR KPSF 192233Z AUTO 00000KT 10SM SCT025 M03/M08 A2987 RMK AO2 T10331083 =
2018-01-19 16:54 METAR KPSF 192154Z AUTO 00000KT 9SM OVC027 M03/M08 A2987 RMK AO2 SLP133
                 T10281078 =
2018-01-19 15:54 METAR KPSF 192054Z AUTO 30005KT 10SM OVC025 M02/M08 A2989 RMK AO2 SLP138
                 T10221083 53001 =
2018-01-19 14:54 METAR KPSF 191954Z AUTO 29004KT 10SM OVC024 M02/M08 A2988 RMK AO2 SLP134
                 T10221083 =
2018-01-19 13:54 METAR KPSF 191854Z AUTO 28006KT 10SM OVC026 M02/M09 A2988 RMK AO2 SLP136
                 T10221089 =
2018-01-19 12:54 METAR KPSF 191754Z AUTO 28006KT 10SM OVC026 M03/M09 A2989 RMK AO2 SLP137
                 T10281094 11028 21111 58018 =
2018-01-19 11:54 METAR KPSF 191654Z AUTO 29008KT 10SM OVC027 M03/M11 A2991 RMK AO2 SLP145
                 T10331106 =
2018-01-19 10:54 METAR KPSF 191554Z AUTO 26007KT 10SM OVC029 M03/M11 A2993 RMK AO2 SLP153
                 T10331106 =
2018-01-19 10:38 METAR KPSF 191538Z AUTO 24006KT 10SM OVC029 M04/M11 A2993 RMK AO2 T10391111 =
2018-01-19 09:54 METAR KPSF 191454Z AUTO 22004KT 10SM BKN031 M05/M11 A2994 RMK AO2 SLP159
                 T10501106 51009 =
2018-01-19 08:54 METAR KPSF 191354Z AUTO 25004KT 6SM BR CLR M11/M12 A2994 RMK AO2 SLP163
                 T11061122 =

Support USWX by starting your Amazon purchase here.